Time;durP1;ratioP1;P1;durP2;ratioP2;P2;SDS_P1;SDS_P2;PMS_P1;PMS_P2;Temp;Humidity;BMP_temperature;BMP_pressure;BME280_temperature;BME280_humidity;BME280_pressure;Samples;Min_cycle;Max_cycle;Signal;HPM_P1;HPM_P2
2023/10/19 00:02:55;;;;;;;4.35;2.55;;;;;;;10.86;65.96;98091.03;10425278;28;20048;-59
2023/10/19 00:07:57;;;;;;;4.90;2.50;;;;;;;10.93;66.13;98089.50;10425446;28;20398;-60
2023/10/19 00:13:04;;;;;;;3.60;2.20;;;;;;;11.01;66.37;98087.00;10422258;28;20056;-59
2023/10/19 00:23:35;;;;;;;5.45;2.80;;;;;;;11.15;66.13;98084.00;10424235;28;20127;-59
2023/10/19 00:28:38;;;;;;;4.68;2.53;;;;;;;11.08;66.22;98077.69;10423301;28;20142;-59
2023/10/19 00:33:41;;;;;;;5.75;3.05;;;;;;;11.12;66.40;98071.22;10404677;28;20151;-59
2023/10/19 00:43:57;;;;;;;4.72;3.00;;;;;;;11.07;66.55;98068.16;10426412;28;20044;-59
2023/10/19 00:49:02;;;;;;;6.18;3.03;;;;;;;11.05;66.84;98061.44;10424638;28;20494;-60
2023/10/19 00:54:10;;;;;;;6.95;3.15;;;;;;;11.11;66.71;98061.69;10424838;28;20814;-59
2023/10/19 00:59:19;;;;;;;6.68;2.72;;;;;;;11.26;66.45;98051.63;10406195;28;20072;-59
2023/10/19 01:04:25;;;;;;;5.03;2.38;;;;;;;11.26;66.92;98049.00;10425331;28;20052;-59
2023/10/19 01:09:34;;;;;;;5.20;2.55;;;;;;;11.34;66.83;98053.56;10423995;28;20053;-59
2023/10/19 01:14:37;;;;;;;6.22;2.83;;;;;;;11.41;66.36;98044.16;10425014;28;20479;-59
2023/10/19 01:19:40;;;;;;;4.78;2.70;;;;;;;11.32;66.69;98034.56;10424114;28;20045;-59
2023/10/19 01:24:42;;;;;;;5.47;2.78;;;;;;;11.44;66.62;98021.13;10421665;28;20931;-59
2023/10/19 01:29:44;;;;;;;4.70;2.75;;;;;;;11.56;66.34;98024.41;10423741;28;20146;-59
2023/10/19 01:34:46;;;;;;;9.02;2.65;;;;;;;11.54;66.44;98021.91;10423203;28;20041;-59
2023/10/19 01:39:48;;;;;;;5.65;2.65;;;;;;;11.67;66.39;98014.56;10398384;28;20051;-59
2023/10/19 01:44:50;;;;;;;6.32;3.40;;;;;;;11.63;65.95;98007.97;10424042;28;20045;-59
2023/10/19 01:49:52;;;;;;;5.60;3.28;;;;;;;11.74;66.08;97999.09;10421152;28;20103;-60
2023/10/19 01:55:03;;;;;;;6.13;2.70;;;;;;;11.74;66.34;98006.97;10404860;28;20542;-60
2023/10/19 02:00:11;;;;;;;5.50;3.42;;;;;;;11.84;66.33;98005.94;10422521;28;20409;-59
2023/10/19 02:05:15;;;;;;;5.63;3.03;;;;;;;11.88;66.00;98011.72;10395773;28;20524;-59
2023/10/19 02:10:18;;;;;;;5.03;2.85;;;;;;;11.81;66.16;98006.22;10412298;28;20033;-59
2023/10/19 02:15:22;;;;;;;9.43;3.25;;;;;;;11.82;66.23;97989.56;10395976;28;20052;-59
2023/10/19 02:20:25;;;;;;;6.18;3.15;;;;;;;11.89;65.83;97984.53;10412425;28;20049;-59
2023/10/19 02:25:42;;;;;;;5.05;2.95;;;;;;;11.95;65.75;97983.94;10430020;28;20220;-58
2023/10/19 02:30:44;;;;;;;5.25;3.03;;;;;;;12.00;65.46;97979.94;10426912;28;20052;-59
2023/10/19 02:35:47;;;;;;;5.68;3.30;;;;;;;11.93;65.67;97975.41;10429866;28;20091;-59
2023/10/19 02:40:51;;;;;;;6.15;3.15;;;;;;;11.92;65.88;97972.00;10445302;28;20489;-59
2023/10/19 02:45:53;;;;;;;5.95;3.13;;;;;;;11.99;65.73;97969.56;10412441;28;20127;-59
2023/10/19 02:50:55;;;;;;;5.15;2.75;;;;;;;12.07;66.00;97961.78;10412845;28;20083;-59
2023/10/19 02:55:59;;;;;;;7.90;3.33;;;;;;;12.14;65.60;97955.00;10421684;28;20581;-60
2023/10/19 03:01:01;;;;;;;6.47;3.13;;;;;;;12.10;65.84;97953.66;10420120;28;20084;-60
2023/10/19 03:06:05;;;;;;;10.18;2.97;;;;;;;12.08;65.89;97953.81;10413406;28;20151;-59
2023/10/19 03:11:07;;;;;;;5.60;2.78;;;;;;;12.07;65.72;97953.94;10408410;28;20045;-60
2023/10/19 03:16:09;;;;;;;5.57;3.17;;;;;;;12.07;65.79;97949.53;10412969;28;20482;-59
2023/10/19 03:21:11;;;;;;;8.77;3.72;;;;;;;12.14;65.80;97949.75;10413456;28;20413;-60
2023/10/19 03:31:45;;;;;;;8.57;3.13;;;;;;;12.24;65.41;97944.44;10389887;28;20045;-60
2023/10/19 03:36:47;;;;;;;6.30;3.30;;;;;;;12.21;65.23;97942.97;10411244;28;20102;-60
2023/10/19 03:41:52;;;;;;;8.15;3.35;;;;;;;12.20;65.57;97941.31;10394963;28;20453;-60
2023/10/19 03:47:11;;;;;;;7.88;4.03;;;;;;;12.16;65.85;97929.47;10443535;28;20045;-60
2023/10/19 03:57:29;;;;;;;6.35;3.35;;;;;;;11.88;65.68;97920.88;10443366;28;20060;-60
2023/10/19 04:02:37;;;;;;;7.03;3.38;;;;;;;11.73;65.93;97911.84;10405707;28;20410;-60
2023/10/19 04:07:40;;;;;;;7.00;3.65;;;;;;;11.58;66.14;97902.03;10428417;28;20048;-60
2023/10/19 04:12:43;;;;;;;7.25;3.05;;;;;;;11.49;66.32;97895.06;10428744;28;20053;-60
2023/10/19 04:17:47;;;;;;;5.40;3.03;;;;;;;11.56;66.33;97889.06;10427824;28;20139;-60
2023/10/19 04:22:50;;;;;;;5.47;3.13;;;;;;;11.69;66.18;97899.19;10424530;28;20041;-60
2023/10/19 04:27:53;;;;;;;7.68;2.85;;;;;;;11.66;66.52;97889.84;10424775;28;20053;-60
2023/10/19 04:32:58;;;;;;;5.97;3.13;;;;;;;11.65;66.65;97887.38;10392118;28;20055;-60
2023/10/19 04:38:01;;;;;;;5.90;2.92;;;;;;;11.74;66.54;97881.25;10427266;28;20045;-60
2023/10/19 04:43:06;;;;;;;6.40;3.05;;;;;;;11.77;66.79;97880.94;10426562;28;20059;-60
2023/10/19 04:48:09;;;;;;;4.47;2.60;;;;;;;11.78;66.91;97880.00;10427826;28;20044;-60
2023/10/19 04:53:12;;;;;;;7.80;3.67;;;;;;;11.93;66.75;97875.88;10405012;28;20382;-60
2023/10/19 04:58:14;;;;;;;8.85;3.28;;;;;;;12.02;66.87;97882.84;10425932;28;20065;-60
2023/10/19 05:03:18;;;;;;;8.13;3.50;;;;;;;12.11;66.31;97876.69;10426141;28;20525;-60
2023/10/19 05:08:24;;;;;;;7.15;3.35;;;;;;;12.14;65.94;97877.22;10426382;28;20427;-60
2023/10/19 05:13:26;;;;;;;9.30;3.90;;;;;;;12.19;65.98;97892.50;10425754;28;20610;-60
2023/10/19 05:18:29;;;;;;;7.40;3.95;;;;;;;12.17;66.23;97886.59;10422647;28;20045;-60
2023/10/19 05:23:31;;;;;;;7.75;3.80;;;;;;;12.03;66.44;97868.75;10407526;28;20045;-60
2023/10/19 05:28:33;;;;;;;5.88;3.45;;;;;;;12.07;66.54;97867.47;10423937;28;20051;-60
2023/10/19 05:33:35;;;;;;;10.40;4.10;;;;;;;12.18;66.26;97867.25;10424680;28;20059;-60
2023/10/19 05:38:37;;;;;;;8.80;4.13;;;;;;;12.13;66.02;97861.63;10407707;28;20041;-60
2023/10/19 05:43:39;;;;;;;8.82;3.97;;;;;;;12.10;66.08;97864.56;10424080;28;20041;-60
2023/10/19 05:48:41;;;;;;;8.32;3.90;;;;;;;12.07;66.40;97867.47;10418730;28;20497;-60
2023/10/19 05:53:44;;;;;;;7.95;4.30;;;;;;;12.04;66.29;97878.28;10421114;28;20072;-60
2023/10/19 05:58:50;;;;;;;7.57;3.75;;;;;;;11.93;66.10;97886.34;10401137;28;20163;-60
2023/10/19 06:03:53;;;;;;;8.52;4.35;;;;;;;11.70;66.98;97875.47;10424087;28;20048;-60
2023/10/19 06:08:55;;;;;;;7.28;3.25;;;;;;;11.84;67.12;97869.75;10423784;28;20408;-60
2023/10/19 06:13:57;;;;;;;6.18;3.42;;;;;;;12.00;66.76;97874.31;10421087;28;20049;-61
2023/10/19 06:18:59;;;;;;;6.60;3.65;;;;;;;12.07;66.60;97883.19;10405746;28;20489;-61
2023/10/19 06:24:02;;;;;;;9.45;4.10;;;;;;;12.10;66.61;97890.78;10420619;28;20048;-61
2023/10/19 06:29:05;;;;;;;6.72;3.45;;;;;;;12.24;66.45;97892.03;10425288;28;20044;-61
2023/10/19 06:34:07;;;;;;;7.70;3.53;;;;;;;12.33;66.37;97889.38;10428284;28;20064;-61
2023/10/19 06:39:09;;;;;;;7.97;4.65;;;;;;;12.25;66.39;97897.13;10407734;28;20041;-61
2023/10/19 06:44:11;;;;;;;7.78;3.95;;;;;;;12.29;66.61;97887.19;10422964;28;20649;-61
2023/10/19 06:49:13;;;;;;;7.30;3.58;;;;;;;12.45;66.54;97888.16;10435434;28;20075;-61
2023/10/19 06:54:14;;;;;;;16.02;4.88;;;;;;;12.59;66.43;97884.97;10410203;28;20135;-61
2023/10/19 06:59:17;;;;;;;7.43;4.25;;;;;;;12.71;66.14;97888.97;10431460;28;20752;-61
2023/10/19 07:04:19;;;;;;;7.85;4.18;;;;;;;12.83;66.06;97890.38;10428607;28;20029;-61
2023/10/19 07:09:21;;;;;;;9.00;4.82;;;;;;;13.12;65.80;97899.69;10431993;28;20053;-61
2023/10/19 07:14:23;;;;;;;9.88;4.65;;;;;;;13.33;65.13;97892.25;10413053;28;20398;-61
2023/10/19 07:19:25;;;;;;;6.95;4.00;;;;;;;13.34;65.42;97888.63;10432346;28;20398;-60
2023/10/19 07:24:27;;;;;;;9.43;4.65;;;;;;;13.45;65.27;97902.34;10432729;28;20120;-61
2023/10/19 07:29:30;;;;;;;9.30;4.10;;;;;;;13.55;65.32;97903.06;10428918;28;20052;-61
2023/10/19 07:34:34;;;;;;;10.35;4.65;;;;;;;13.63;65.02;97900.44;10401770;28;20060;-61
2023/10/19 07:39:39;;;;;;;9.23;5.03;;;;;;;13.65;65.12;97895.03;10428185;28;20149;-61
2023/10/19 07:44:41;;;;;;;8.40;4.47;;;;;;;13.77;65.08;97906.88;10445524;28;20483;-61
2023/10/19 07:49:43;;;;;;;10.25;4.47;;;;;;;13.86;64.85;97903.28;10428255;28;20045;-62
2023/10/19 07:54:45;;;;;;;7.53;3.83;;;;;;;13.84;64.74;97902.59;10428497;28;20424;-61
2023/10/19 07:59:47;;;;;;;8.93;3.97;;;;;;;13.93;64.74;97888.50;10411808;28;20044;-61
2023/10/19 08:04:49;;;;;;;9.13;4.63;;;;;;;14.10;64.34;97884.94;10411692;28;20490;-61
2023/10/19 08:09:51;;;;;;;8.48;4.43;;;;;;;14.04;64.57;97884.75;10413208;28;20034;-61
2023/10/19 08:14:55;;;;;;;10.60;4.18;;;;;;;14.12;64.61;97885.59;10430069;28;20083;-61
2023/10/19 08:19:57;;;;;;;8.68;4.50;;;;;;;14.32;64.30;97875.56;10430222;28;20033;-61
2023/10/19 08:24:59;;;;;;;9.27;4.40;;;;;;;14.25;64.30;97875.41;10429300;28;20132;-61
2023/10/19 08:30:03;;;;;;;11.85;5.30;;;;;;;14.38;64.46;97878.38;10407558;28;20041;-61
2023/10/19 08:35:06;;;;;;;11.73;5.07;;;;;;;14.42;64.44;97887.56;10427629;28;20049;-61
2023/10/19 08:40:17;;;;;;;9.20;4.72;;;;;;;14.58;64.44;97886.75;10404100;28;20044;-61
2023/10/19 08:45:21;;;;;;;9.07;4.63;;;;;;;14.70;63.96;97868.81;10426733;28;20126;-61
2023/10/19 08:50:28;;;;;;;9.88;5.03;;;;;;;14.74;64.20;97860.41;10425850;28;20057;-61
2023/10/19 08:55:34;;;;;;;9.60;4.38;;;;;;;14.98;63.87;97836.66;10427904;28;20049;-61
2023/10/19 09:00:54;;;;;;;9.65;5.20;;;;;;;14.84;63.71;97855.00;10427021;28;20516;-61
2023/10/19 09:06:01;;;;;;;10.98;5.28;;;;;;;14.86;64.22;97848.53;10401025;28;20041;-61
2023/10/19 09:11:13;;;;;;;9.13;5.07;;;;;;;15.18;63.43;97837.09;10407804;28;20616;-61
2023/10/19 09:16:20;;;;;;;11.27;5.75;;;;;;;15.46;63.24;97837.44;10425711;28;20037;-61
2023/10/19 09:21:25;;;;;;;13.02;4.60;;;;;;;15.35;63.30;97822.84;10426465;28;20176;-61
2023/10/19 09:26:27;;;;;;;8.93;4.45;;;;;;;15.27;63.82;97815.00;10390479;28;20538;-61
2023/10/19 09:31:30;;;;;;;15.65;4.85;;;;;;;15.43;63.75;97812.25;10426361;28;20415;-61
2023/10/19 09:36:33;;;;;;;11.77;5.15;;;;;;;15.51;63.61;97796.44;10427901;28;20048;-61
2023/10/19 09:41:35;;;;;;;9.25;4.68;;;;;;;15.53;63.83;97799.72;10423169;28;20123;-61
2023/10/19 09:46:39;;;;;;;10.07;4.72;;;;;;;15.61;63.74;97791.78;10423555;28;20041;-60
2023/10/19 09:51:44;;;;;;;8.65;4.65;;;;;;;15.87;63.77;97794.91;10426542;28;20144;-60
2023/10/19 09:57:16;;;;;;;7.30;4.35;;;;;;;15.91;63.89;97788.28;10425833;28;20045;-60
2023/10/19 10:02:21;;;;;;;6.57;3.78;;;;;;;15.84;63.85;97792.59;10424292;28;20412;-60
2023/10/19 10:07:27;;;;;;;5.82;3.53;;;;;;;15.98;63.90;97789.19;10423127;28;20052;-60
2023/10/19 10:12:43;;;;;;;8.23;3.70;;;;;;;16.13;64.07;97783.97;10422811;28;20052;-60
2023/10/19 10:17:51;;;;;;;6.75;3.78;;;;;;;16.17;63.81;97788.72;10423261;28;20482;-60
2023/10/19 10:23:31;;;;;;;8.15;3.90;;;;;;;16.39;63.88;97807.28;10438621;28;20444;-60
2023/10/19 10:28:35;;;;;;;5.60;3.15;;;;;;;16.36;63.67;97773.38;10422468;28;20041;-60
2023/10/19 10:33:38;;;;;;;7.93;3.65;;;;;;;16.44;64.14;97770.69;10404398;28;20501;-60
2023/10/19 10:38:41;;;;;;;8.20;2.97;;;;;;;16.77;63.61;97771.97;10405855;28;20102;-60
2023/10/19 10:43:52;;;;;;;8.57;3.35;;;;;;;17.28;62.95;97762.25;10421002;28;20520;-60
2023/10/19 10:48:55;;;;;;;7.18;3.67;;;;;;;17.57;62.79;97764.81;10404364;28;20118;-60
2023/10/19 10:53:58;;;;;;;7.82;4.45;;;;;;;17.64;62.48;97763.91;10422890;28;20041;-60
2023/10/19 10:59:12;;;;;;;7.25;4.13;;;;;;;17.72;62.38;97755.84;10423683;28;20053;-60
2023/10/19 11:04:16;;;;;;;6.78;3.78;;;;;;;17.74;62.09;97761.75;10420434;28;20056;-60
2023/10/19 11:09:18;;;;;;;12.10;4.70;;;;;;;17.95;61.79;97766.22;10422467;28;20441;-60
2023/10/19 11:14:23;;;;;;;6.95;3.25;;;;;;;18.29;61.41;97765.50;10425348;28;20041;-60
2023/10/19 11:19:39;;;;;;;7.60;3.70;;;;;;;18.65;59.75;97759.03;10425382;28;20052;-61
2023/10/19 11:24:41;;;;;;;5.50;3.50;;;;;;;18.71;60.00;97753.97;10429056;28;20045;-61
2023/10/19 11:30:07;;;;;;;6.53;3.33;;;;;;;18.65;59.63;97756.38;10423742;28;20041;-60
2023/10/19 11:35:09;;;;;;;7.10;3.10;;;;;;;18.57;60.60;97756.53;10417059;28;20742;-60
2023/10/19 11:40:12;;;;;;;9.80;3.78;;;;;;;18.43;60.89;97760.09;10442067;28;20045;-60
2023/10/19 11:45:14;;;;;;;5.78;3.80;;;;;;;18.42;61.09;97749.72;10429421;28;20053;-60
2023/10/19 11:50:17;;;;;;;6.20;3.65;;;;;;;18.45;61.24;97736.91;10427592;28;20045;-60
2023/10/19 11:55:21;;;;;;;6.80;3.92;;;;;;;18.53;60.95;97734.09;10428417;28;20052;-60
2023/10/19 12:00:33;;;;;;;8.18;3.95;;;;;;;18.52;61.39;97734.31;10426003;28;20045;-60
2023/10/19 12:05:37;;;;;;;6.75;3.70;;;;;;;18.42;61.75;97732.00;10427385;28;20658;-60
2023/10/19 12:10:39;;;;;;;6.90;3.78;;;;;;;18.33;62.07;97727.06;10426037;28;20052;-60
2023/10/19 12:15:41;;;;;;;8.45;3.80;;;;;;;18.39;62.15;97731.56;10405645;28;20037;-60
2023/10/19 12:20:45;;;;;;;7.07;3.85;;;;;;;18.49;61.87;97732.88;10423499;28;20037;-61
2023/10/19 12:25:47;;;;;;;6.53;3.90;;;;;;;18.54;62.05;97719.03;10426782;28;20040;-61
2023/10/19 12:30:58;;;;;;;10.00;4.10;;;;;;;18.31;62.53;97715.84;10418576;28;20071;-61
2023/10/19 12:36:00;;;;;;;6.78;3.67;;;;;;;18.49;62.31;97718.81;10423757;28;20045;-61
2023/10/19 12:41:02;;;;;;;7.72;4.03;;;;;;;18.61;62.00;97711.94;10426601;28;20285;-60
2023/10/19 12:46:08;;;;;;;7.07;3.70;;;;;;;18.66;62.14;97706.88;10407233;28;20048;-61
2023/10/19 12:51:11;;;;;;;5.93;3.10;;;;;;;18.75;62.12;97699.59;10424997;28;20127;-60
2023/10/19 12:56:13;;;;;;;5.80;3.08;;;;;;;18.73;62.19;97699.78;10425211;28;20041;-60
2023/10/19 13:01:19;;;;;;;7.82;3.58;;;;;;;18.58;62.25;97699.91;10424553;28;20158;-60
2023/10/19 13:06:23;;;;;;;7.20;3.88;;;;;;;18.19;63.19;97696.19;10416506;28;20513;-60
2023/10/19 13:11:27;;;;;;;6.32;3.40;;;;;;;18.03;63.47;97683.25;10421577;28;20083;-60
2023/10/19 13:16:30;;;;;;;5.72;2.88;;;;;;;17.91;63.99;97687.44;10409379;28;20390;-61
2023/10/19 13:21:33;;;;;;;5.43;2.63;;;;;;;17.98;63.61;97677.72;10405087;28;20037;-60
2023/10/19 13:26:38;;;;;;;10.95;3.92;;;;;;;18.07;63.94;97681.88;10419602;28;20053;-60
2023/10/19 13:31:48;;;;;;;6.00;3.33;;;;;;;18.14;64.08;97669.50;10420926;28;20045;-61
2023/10/19 13:36:51;;;;;;;5.82;2.35;;;;;;;18.24;63.68;97662.09;10418034;28;20105;-60
2023/10/19 13:41:54;;;;;;;6.45;2.70;;;;;;;18.11;63.76;97660.13;10421551;28;20047;-61
2023/10/19 13:46:56;;;;;;;4.78;2.58;;;;;;;18.09;63.94;97662.16;10418190;28;20048;-60
2023/10/19 13:51:59;;;;;;;6.20;2.42;;;;;;;18.06;63.67;97654.59;10421198;28;20372;-60
2023/10/19 13:57:00;;;;;;;6.20;2.65;;;;;;;17.97;63.86;97657.59;10416020;28;20780;-60
2023/10/19 14:02:03;;;;;;;3.95;2.22;;;;;;;17.90;64.12;97660.19;10417363;28;20138;-60
2023/10/19 14:07:05;;;;;;;6.68;1.80;;;;;;;17.79;64.37;97660.72;10416762;28;20058;-60
2023/10/19 14:12:08;;;;;;;4.28;2.00;;;;;;;17.62;64.63;97649.59;10403549;28;20044;-60
2023/10/19 14:17:10;;;;;;;4.40;2.03;;;;;;;17.49;64.74;97638.91;10399764;28;20604;-60
2023/10/19 14:22:12;;;;;;;6.40;2.00;;;;;;;17.31;64.81;97635.03;10421020;28;20041;-60
2023/10/19 14:27:14;;;;;;;5.18;2.38;;;;;;;17.14;65.23;97636.31;10418032;28;20037;-60
2023/10/19 14:32:16;;;;;;;4.78;1.70;;;;;;;17.19;65.36;97616.25;10420242;28;20309;-60
2023/10/19 14:37:19;;;;;;;4.05;2.10;;;;;;;17.11;65.37;97602.34;10417963;28;20053;-60
2023/10/19 14:42:21;;;;;;;4.60;1.98;;;;;;;16.96;65.88;97579.47;10418832;28;20052;-60
2023/10/19 14:47:23;;;;;;;3.40;1.73;;;;;;;16.85;66.37;97550.13;10416455;28;20052;-59
2023/10/19 14:52:25;;;;;;;6.25;2.20;;;;;;;16.89;66.48;97535.53;10428309;28;20056;-59
2023/10/19 14:57:27;;;;;;;4.57;2.20;;;;;;;16.91;66.36;97528.25;10425372;28;20075;-59
2023/10/19 15:02:29;;;;;;;3.72;2.38;;;;;;;16.88;66.12;97534.72;10404048;28;20056;-60
2023/10/19 15:07:31;;;;;;;5.35;2.40;;;;;;;16.75;66.37;97528.50;10420641;28;20041;-60
2023/10/19 15:12:36;;;;;;;5.55;2.17;;;;;;;16.75;66.63;97521.38;10422982;28;20048;-60
2023/10/19 15:17:40;;;;;;;4.93;2.38;;;;;;;16.77;66.38;97511.44;10405363;28;20138;-60
2023/10/19 15:22:49;;;;;;;7.43;2.37;;;;;;;16.75;66.69;97502.09;10426317;28;20076;-60
2023/10/19 15:27:53;;;;;;;4.40;2.60;;;;;;;16.86;66.44;97488.38;10419555;28;20044;-60
2023/10/19 15:32:55;;;;;;;5.15;2.35;;;;;;;16.79;66.64;97483.03;10427480;28;20990;-60
2023/10/19 15:37:57;;;;;;;10.43;2.78;;;;;;;16.86;66.74;97470.72;10422179;28;20044;-60
2023/10/19 15:43:00;;;;;;;6.32;3.55;;;;;;;16.98;66.11;97476.28;10424669;28;20488;-60
2023/10/19 15:48:02;;;;;;;7.43;3.53;;;;;;;17.00;66.38;97474.28;10424939;28;20073;-60
2023/10/19 15:53:04;;;;;;;9.18;5.03;;;;;;;16.89;66.34;97477.44;10425233;28;20045;-60
2023/10/19 15:58:08;;;;;;;8.43;4.60;;;;;;;16.69;66.72;97487.03;10423259;28;20033;-59
2023/10/19 16:03:10;;;;;;;10.45;5.50;;;;;;;16.31;67.39;97472.38;10426359;28;20713;-60
2023/10/19 16:08:12;;;;;;;8.88;5.35;;;;;;;16.16;67.29;97478.50;10419665;28;20103;-60
2023/10/19 16:13:15;;;;;;;10.13;5.03;;;;;;;16.22;67.38;97496.22;10424742;28;20075;-60
2023/10/19 16:18:17;;;;;;;10.02;5.35;;;;;;;16.20;66.83;97492.16;10400221;28;20044;-60
2023/10/19 16:23:19;;;;;;;20.98;5.50;;;;;;;15.98;66.91;97483.38;10421498;28;20417;-60
2023/10/19 16:28:21;;;;;;;10.50;4.93;;;;;;;15.81;67.26;97479.34;10380303;28;20136;-60
2023/10/19 16:33:25;;;;;;;10.93;5.25;;;;;;;15.51;67.74;97474.25;10391135;28;20075;-60
2023/10/19 16:38:27;;;;;;;10.23;5.00;;;;;;;15.25;68.41;97493.09;10416100;28;20603;-60
2023/10/19 16:43:29;;;;;;;11.50;6.13;;;;;;;15.22;68.34;97485.56;10423600;28;20052;-60
2023/10/19 16:48:31;;;;;;;10.05;5.47;;;;;;;15.07;68.24;97485.53;10415323;28;20421;-60
2023/10/19 16:53:33;;;;;;;8.18;5.05;;;;;;;15.05;68.14;97513.03;10423180;28;20049;-60
2023/10/19 16:58:35;;;;;;;9.48;5.68;;;;;;;15.08;68.39;97517.94;10399576;28;20052;-60
2023/10/19 17:03:37;;;;;;;9.20;5.40;;;;;;;15.08;68.11;97513.47;10421977;28;20071;-60
2023/10/19 17:08:40;;;;;;;13.30;5.72;;;;;;;15.07;68.51;97508.41;10398605;28;20404;-60
2023/10/19 17:13:44;;;;;;;12.93;5.95;;;;;;;14.96;68.68;97519.38;10420555;28;20489;-60
2023/10/19 17:18:46;;;;;;;11.90;5.65;;;;;;;14.92;68.60;97536.50;10406978;28;20052;-60
2023/10/19 17:23:48;;;;;;;10.48;5.20;;;;;;;14.82;68.87;97539.34;10403953;28;20051;-60
2023/10/19 17:28:53;;;;;;;15.77;6.15;;;;;;;14.72;69.06;97530.06;10413865;28;20456;-60
2023/10/19 17:33:55;;;;;;;12.30;5.93;;;;;;;14.67;69.40;97527.16;10400027;28;20493;-60
2023/10/19 17:38:57;;;;;;;7.90;4.65;;;;;;;14.78;69.86;97534.66;10418707;28;20053;-60
2023/10/19 17:43:59;;;;;;;10.50;4.32;;;;;;;15.04;69.36;97519.28;10422229;28;20049;-60
2023/10/19 17:49:01;;;;;;;7.57;4.38;;;;;;;15.09;68.85;97496.69;10433498;28;20116;-60
2023/10/19 17:54:05;;;;;;;8.40;4.00;;;;;;;14.90;69.27;97477.97;10419079;28;20060;-60
2023/10/19 17:59:07;;;;;;;6.97;4.05;;;;;;;14.77;69.55;97470.66;10418695;28;20037;-60
2023/10/19 18:04:10;;;;;;;8.98;4.32;;;;;;;14.74;69.33;97496.50;10418984;28;20607;-60
2023/10/19 18:09:12;;;;;;;7.45;4.28;;;;;;;14.90;69.32;97512.19;10414461;28;20032;-60
2023/10/19 18:14:14;;;;;;;14.43;5.60;;;;;;;15.06;68.96;97514.66;10418061;28;20045;-60
2023/10/19 18:19:17;;;;;;;9.02;5.00;;;;;;;15.12;68.55;97498.16;10417215;28;20374;-60
2023/10/19 18:24:20;;;;;;;8.82;5.28;;;;;;;15.04;68.58;97490.34;10418368;28;20052;-60
2023/10/19 18:29:22;;;;;;;8.68;5.25;;;;;;;15.12;68.61;97492.91;10418076;28;20041;-60
2023/10/19 18:34:25;;;;;;;7.90;4.60;;;;;;;15.05;68.38;97469.09;10420479;28;20045;-60
2023/10/19 18:39:27;;;;;;;11.13;5.10;;;;;;;14.91;68.65;97472.50;10416859;28;20044;-60
2023/10/19 18:44:29;;;;;;;8.85;4.80;;;;;;;14.85;68.92;97460.06;10416632;28;20056;-58
2023/10/19 18:49:31;;;;;;;7.85;4.28;;;;;;;14.76;69.64;97466.38;10414202;28;20442;-59
2023/10/19 18:54:33;;;;;;;8.98;5.50;;;;;;;14.86;69.38;97439.84;10420317;28;20545;-59
2023/10/19 18:59:35;;;;;;;7.72;4.22;;;;;;;14.89;69.54;97434.22;10415882;28;20534;-59
2023/10/19 19:04:38;;;;;;;7.80;3.92;;;;;;;14.99;69.38;97437.41;10420001;28;20493;-60
2023/10/19 19:09:43;;;;;;;7.63;4.28;;;;;;;14.96;69.06;97422.78;10420929;28;20309;-59
2023/10/19 19:14:45;;;;;;;10.15;5.53;;;;;;;14.89;69.54;97416.63;10420413;28;20512;-59
2023/10/19 19:19:47;;;;;;;10.15;5.32;;;;;;;14.98;69.50;97439.22;10420520;28;20408;-60
2023/10/19 19:24:49;;;;;;;10.45;5.43;;;;;;;14.97;68.94;97426.22;10421500;28;20057;-59
2023/10/19 19:29:51;;;;;;;10.55;5.30;;;;;;;14.89;69.05;97423.69;10400207;28;20048;-59
2023/10/19 19:34:53;;;;;;;11.77;5.72;;;;;;;14.87;69.15;97428.31;10422355;28;20044;-59
2023/10/19 19:39:56;;;;;;;12.20;5.47;;;;;;;14.89;69.18;97418.41;10429673;28;20037;-59
2023/10/19 19:44:58;;;;;;;10.38;5.28;;;;;;;14.92;68.89;97415.44;10420701;28;20052;-59
2023/10/19 19:50:00;;;;;;;8.35;4.82;;;;;;;14.88;69.23;97404.44;10404952;28;20110;-59
2023/10/19 19:55:07;;;;;;;7.82;4.65;;;;;;;14.99;69.11;97400.56;10429198;28;20052;-59
2023/10/19 20:00:16;;;;;;;7.05;4.47;;;;;;;14.91;69.26;97398.84;10423747;28;20044;-60
2023/10/19 20:05:18;;;;;;;9.45;4.90;;;;;;;14.90;69.40;97401.66;10426237;28;20052;-60
2023/10/19 20:10:20;;;;;;;7.82;4.35;;;;;;;14.97;69.04;97399.91;10410010;28;20049;-60
2023/10/19 20:15:22;;;;;;;9.18;4.53;;;;;;;15.05;68.98;97397.19;10425133;28;20048;-60
2023/10/19 20:20:28;;;;;;;9.95;4.78;;;;;;;15.04;68.51;97385.84;10427108;28;20528;-60
2023/10/19 20:25:31;;;;;;;8.80;4.97;;;;;;;14.95;68.82;97394.00;10394621;28;20036;-60
2023/10/19 20:30:34;;;;;;;9.15;4.68;;;;;;;14.91;68.91;97400.63;10428449;28;20052;-60
2023/10/19 20:35:37;;;;;;;7.68;4.13;;;;;;;14.78;69.09;97387.31;10426159;28;20501;-59
2023/10/19 20:40:41;;;;;;;7.28;4.25;;;;;;;14.87;69.27;97354.63;10409889;28;20037;-59
2023/10/19 20:45:48;;;;;;;6.90;3.65;;;;;;;14.90;69.30;97347.19;10425060;28;20041;-59
2023/10/19 20:50:52;;;;;;;8.13;4.30;;;;;;;14.95;69.22;97336.94;10427367;28;20044;-60
2023/10/19 20:55:59;;;;;;;7.93;4.40;;;;;;;15.08;68.86;97336.31;10426682;28;20045;-60
2023/10/19 21:01:08;;;;;;;10.32;5.82;;;;;;;15.14;68.49;97338.22;10427239;28;20535;-60
2023/10/19 21:06:15;;;;;;;11.63;5.20;;;;;;;15.19;68.70;97312.97;10424582;28;20077;-60
2023/10/19 21:11:22;;;;;;;8.82;4.82;;;;;;;14.97;69.04;97311.25;10424778;28;20135;-60
2023/10/19 21:16:24;;;;;;;11.82;6.18;;;;;;;15.05;69.39;97315.59;10424595;28;20137;-59
2023/10/19 21:21:26;;;;;;;9.95;4.95;;;;;;;15.05;69.06;97308.53;10424094;28;20103;-60
2023/10/19 21:26:29;;;;;;;11.43;5.53;;;;;;;14.94;69.40;97303.72;10426712;28;20432;-60
2023/10/19 21:31:31;;;;;;;9.02;4.93;;;;;;;14.99;69.25;97305.81;10439846;28;20305;-60
2023/10/19 21:36:33;;;;;;;8.07;4.90;;;;;;;14.91;70.12;97282.22;10426858;28;20413;-59
2023/10/19 21:41:35;;;;;;;11.38;5.72;;;;;;;14.89;70.55;97263.97;10424667;28;20497;-60
2023/10/19 21:46:37;;;;;;;7.10;4.43;;;;;;;15.02;70.30;97265.97;10425975;28;20131;-59
2023/10/19 21:51:40;;;;;;;10.45;4.85;;;;;;;15.14;70.35;97246.88;10425213;28;20316;-59
2023/10/19 21:56:42;;;;;;;7.57;4.38;;;;;;;15.18;70.34;97244.69;10424211;28;20052;-59
2023/10/19 22:01:45;;;;;;;8.15;4.15;;;;;;;15.32;70.15;97238.56;10407396;28;20040;-60
2023/10/19 22:06:47;;;;;;;10.70;5.28;;;;;;;15.33;70.03;97225.22;10391431;28;20049;-59
2023/10/19 22:11:49;;;;;;;7.43;4.47;;;;;;;15.46;70.00;97221.91;10421884;28;20515;-60
2023/10/19 22:16:52;;;;;;;8.48;4.15;;;;;;;15.53;70.09;97212.25;10424706;28;20044;-59
2023/10/19 22:21:54;;;;;;;6.20;3.80;;;;;;;15.60;69.98;97207.88;10422669;28;20090;-59
2023/10/19 22:26:56;;;;;;;8.40;3.83;;;;;;;15.64;70.02;97206.50;10422679;28;20391;-59
2023/10/19 22:31:59;;;;;;;8.18;3.97;;;;;;;15.63;69.95;97191.72;10424967;28;20053;-59
2023/10/19 22:37:01;;;;;;;7.18;3.95;;;;;;;15.34;70.52;97181.25;10406184;28;20099;-59
2023/10/19 22:42:04;;;;;;;7.30;4.10;;;;;;;15.11;71.17;97173.53;10421319;28;20048;-59
2023/10/19 22:47:06;;;;;;;8.73;4.60;;;;;;;15.10;71.12;97173.72;10424952;28;20128;-59
2023/10/19 22:52:08;;;;;;;7.75;4.25;;;;;;;15.08;71.34;97181.00;10421895;28;20045;-59
2023/10/19 22:57:12;;;;;;;9.93;4.50;;;;;;;15.14;71.34;97178.41;10422711;28;20515;-60
2023/10/19 23:02:14;;;;;;;6.90;3.95;;;;;;;15.22;71.08;97169.59;10423161;28;20424;-59
2023/10/19 23:07:16;;;;;;;5.93;3.65;;;;;;;15.19;71.09;97154.16;10424509;28;20037;-60
2023/10/19 23:12:18;;;;;;;6.45;3.70;;;;;;;15.13;71.83;97144.38;10444984;28;20052;-59
2023/10/19 23:17:29;;;;;;;7.85;3.88;;;;;;;15.12;71.64;97148.03;10432253;28;20041;-59
2023/10/19 23:22:31;;;;;;;8.13;3.95;;;;;;;15.08;72.08;97131.78;10429461;28;20045;-59
2023/10/19 23:27:33;;;;;;;7.57;4.35;;;;;;;15.05;72.12;97129.53;10430228;28;20353;-59
2023/10/19 23:32:35;;;;;;;11.13;4.32;;;;;;;15.05;72.02;97120.81;10412294;28;20060;-59
2023/10/19 23:37:38;;;;;;;8.25;4.15;;;;;;;15.07;72.26;97111.75;10431490;28;20072;-59
2023/10/19 23:42:40;;;;;;;5.75;3.22;;;;;;;14.98;72.63;97091.00;10429904;28;20048;-59
2023/10/19 23:47:43;;;;;;;6.60;3.55;;;;;;;15.00;72.38;97075.84;10429431;28;20045;-59
2023/10/19 23:52:45;;;;;;;6.43;3.33;;;;;;;15.05;72.32;97074.25;10429286;28;20135;-59